createdAt,value
2024-04-30T00:01:01.556Z,10.50
2024-04-30T00:03:30.310Z,10.50
2024-04-30T00:05:57.346Z,10.40
2024-04-30T00:08:26.407Z,10.40
2024-04-30T00:10:53.485Z,10.40
2024-04-30T00:13:20.443Z,10.40
2024-04-30T00:15:47.554Z,10.30
2024-04-30T00:18:14.506Z,10.30
2024-04-30T00:20:41.558Z,10.30
2024-04-30T00:23:08.623Z,10.20
2024-04-30T00:25:35.593Z,10.20
2024-04-30T00:28:02.776Z,10.10
2024-04-30T00:30:29.751Z,10.10
2024-04-30T00:32:56.806Z,10.10
2024-04-30T00:35:24.169Z,10.10
2024-04-30T00:37:52.234Z,10.00
2024-04-30T00:40:19.241Z,10.00
2024-04-30T00:42:46.341Z,10.00
2024-04-30T00:45:13.628Z,10.00
2024-04-30T00:47:40.730Z,10.00
2024-04-30T00:50:08.158Z,10.00
2024-04-30T00:52:35.186Z,9.90
2024-04-30T00:55:02.199Z,9.90
2024-04-30T00:57:29.446Z,9.90
2024-04-30T00:59:56.416Z,9.80
2024-04-30T01:02:23.889Z,9.80
2024-04-30T01:05:03.173Z,9.70
2024-04-30T01:07:30.366Z,9.70
2024-04-30T01:09:57.755Z,9.60
2024-04-30T01:12:24.943Z,9.60
2024-04-30T01:14:52.026Z,9.50
2024-04-30T01:17:19.105Z,9.50
2024-04-30T01:19:46.374Z,9.40
2024-04-30T01:22:13.325Z,9.40
2024-04-30T01:24:40.377Z,9.40
2024-04-30T01:27:07.312Z,9.30
2024-04-30T01:29:34.343Z,9.30
2024-04-30T01:32:01.398Z,9.20
2024-04-30T01:34:28.472Z,9.20
2024-04-30T01:36:55.477Z,9.10
2024-04-30T01:39:22.403Z,9.10
2024-04-30T01:41:49.386Z,9.10
2024-04-30T01:44:16.503Z,9.00
2024-04-30T01:46:43.556Z,9.00
2024-04-30T01:49:10.530Z,9.00
2024-04-30T01:51:37.603Z,9.00
2024-04-30T01:54:05.018Z,8.90
2024-04-30T01:56:31.967Z,8.90
2024-04-30T01:58:58.957Z,8.90
2024-04-30T02:01:25.977Z,8.80
2024-04-30T02:03:53.002Z,8.80
2024-04-30T02:06:19.951Z,8.80
2024-04-30T02:08:46.928Z,8.80
2024-04-30T02:11:13.947Z,8.80
2024-04-30T02:13:40.924Z,8.70
2024-04-30T02:16:07.964Z,8.70
2024-04-30T02:18:34.968Z,8.70
2024-04-30T02:21:01.916Z,8.70
2024-04-30T02:23:28.991Z,8.70
2024-04-30T02:25:55.942Z,8.70
2024-04-30T02:28:23.383Z,8.70
2024-04-30T02:31:08.991Z,8.70
2024-04-30T02:33:54.649Z,8.70
2024-04-30T02:36:22.720Z,8.60
2024-04-30T02:38:50.085Z,8.70
2024-04-30T02:41:17.014Z,8.70
2024-04-30T02:43:43.975Z,8.70
2024-04-30T02:46:10.996Z,8.70
2024-04-30T02:48:37.944Z,8.60
2024-04-30T02:51:05.206Z,8.60
2024-04-30T02:53:32.255Z,8.60
2024-04-30T02:55:59.377Z,8.60
2024-04-30T02:58:26.478Z,8.50
2024-04-30T03:00:53.981Z,8.50
2024-04-30T03:03:20.974Z,8.50
2024-04-30T03:05:47.943Z,8.40
2024-04-30T03:08:14.929Z,8.40
2024-04-30T03:10:42.102Z,8.40
2024-04-30T03:13:09.137Z,8.40
2024-04-30T03:15:36.078Z,8.40
2024-04-30T03:18:05.080Z,8.30
2024-04-30T03:20:32.119Z,8.30
2024-04-30T03:23:01.528Z,8.30
2024-04-30T03:25:28.710Z,8.30
2024-04-30T03:27:56.746Z,8.30
2024-04-30T03:30:24.926Z,8.30
2024-04-30T03:32:51.926Z,8.30
2024-04-30T03:35:19.001Z,8.30
2024-04-30T03:37:46.063Z,8.20
2024-04-30T03:40:13.032Z,8.30
2024-04-30T03:42:41.080Z,8.20
2024-04-30T03:45:08.227Z,8.20
2024-04-30T03:47:35.370Z,8.10
2024-04-30T03:50:02.868Z,8.10
2024-04-30T03:52:30.028Z,8.10
2024-04-30T03:54:57.025Z,8.00
2024-04-30T03:57:23.963Z,8.00
2024-04-30T03:59:50.909Z,8.00
2024-04-30T04:02:17.964Z,7.90
2024-04-30T04:04:45.016Z,7.90
2024-04-30T04:07:11.991Z,7.90
2024-04-30T04:09:38.894Z,7.90
2024-04-30T04:12:24.924Z,7.90
2024-04-30T04:14:52.569Z,7.90
2024-04-30T04:17:20.084Z,7.80
2024-04-30T04:19:49.652Z,7.80
2024-04-30T04:22:16.789Z,7.80
2024-04-30T04:24:44.239Z,7.90
2024-04-30T04:27:11.248Z,7.90
2024-04-30T04:29:38.202Z,7.90
2024-04-30T04:32:07.271Z,7.90
2024-04-30T04:34:34.409Z,7.90
2024-04-30T04:37:01.965Z,7.90
2024-04-30T04:39:28.929Z,7.90
2024-04-30T04:41:55.951Z,7.90
2024-04-30T04:44:22.931Z,7.90
2024-04-30T04:46:49.978Z,7.80
2024-04-30T04:49:17.095Z,7.80
2024-04-30T04:51:44.048Z,7.80
2024-04-30T04:54:11.047Z,7.80
2024-04-30T04:56:38.016Z,7.80
2024-04-30T04:59:05.044Z,7.80
2024-04-30T05:01:32.013Z,7.80
2024-04-30T05:04:00.326Z,7.80
2024-04-30T05:06:27.320Z,7.80
2024-04-30T05:08:54.421Z,7.80
2024-04-30T05:11:21.383Z,7.80
2024-04-30T05:13:48.571Z,7.80
2024-04-30T05:16:15.542Z,7.80
2024-04-30T05:18:42.524Z,7.80
2024-04-30T05:21:09.904Z,7.80
2024-04-30T05:23:36.949Z,7.80
2024-04-30T05:26:04.154Z,7.90
2024-04-30T05:28:31.209Z,7.90
2024-04-30T05:30:58.282Z,7.90
2024-04-30T05:33:25.364Z,7.90
2024-04-30T05:35:52.442Z,8.00
2024-04-30T05:38:19.364Z,8.00
2024-04-30T05:40:46.294Z,8.00
2024-04-30T05:43:16.858Z,8.10
2024-04-30T05:45:43.916Z,8.30
2024-04-30T05:48:11.915Z,8.50
2024-04-30T05:50:38.961Z,8.80
2024-04-30T05:53:07.076Z,9.00
2024-04-30T05:55:34.055Z,9.20
2024-04-30T05:58:01.320Z,9.40
2024-04-30T06:00:28.298Z,9.50
2024-04-30T06:02:56.119Z,9.50
2024-04-30T06:05:24.186Z,9.60
2024-04-30T06:07:51.262Z,9.60
2024-04-30T06:10:19.761Z,9.60
2024-04-30T06:12:47.957Z,9.60
2024-04-30T06:15:15.009Z,9.60
2024-04-30T06:17:42.064Z,9.60
2024-04-30T06:20:09.456Z,9.60
2024-04-30T06:22:36.565Z,9.60
2024-04-30T06:25:03.799Z,9.70
2024-04-30T06:27:30.761Z,9.70
2024-04-30T06:29:57.951Z,9.80
2024-04-30T06:32:25.062Z,9.80
2024-04-30T06:34:52.754Z,9.80
2024-04-30T06:37:19.870Z,9.90
2024-04-30T06:39:48.993Z,10.00
2024-04-30T06:42:17.793Z,10.10
2024-04-30T06:44:45.170Z,10.10
2024-04-30T06:47:13.149Z,10.30
2024-04-30T06:49:40.253Z,10.40
2024-04-30T06:52:07.307Z,10.50
2024-04-30T06:54:34.554Z,10.80
2024-04-30T06:57:01.487Z,11.20
2024-04-30T06:59:28.589Z,11.60
2024-04-30T07:01:55.556Z,11.90
2024-04-30T07:04:22.571Z,12.20
2024-04-30T07:06:50.290Z,12.30
2024-04-30T07:09:17.240Z,12.50
2024-04-30T07:11:44.262Z,12.60
2024-04-30T07:14:11.373Z,12.60
2024-04-30T07:16:45.984Z,12.60
2024-04-30T07:19:19.096Z,12.70
2024-04-30T07:21:46.847Z,12.70
2024-04-30T07:24:13.844Z,12.80
2024-04-30T07:26:42.192Z,12.90
2024-04-30T07:29:09.657Z,12.90
2024-04-30T07:31:39.001Z,13.00
2024-04-30T07:34:07.860Z,13.00
2024-04-30T07:36:34.995Z,13.10
2024-04-30T07:39:02.033Z,13.10
2024-04-30T07:41:30.233Z,13.20
2024-04-30T07:43:57.191Z,13.30
2024-04-30T07:46:24.228Z,13.40
2024-04-30T07:48:51.457Z,13.50
2024-04-30T07:51:18.457Z,13.60
2024-04-30T07:53:46.751Z,13.70
2024-04-30T07:56:13.807Z,13.80
2024-04-30T07:58:40.985Z,13.90
2024-04-30T08:01:08.229Z,13.90
2024-04-30T08:03:35.291Z,13.90
2024-04-30T08:06:10.629Z,13.90
2024-04-30T08:08:42.069Z,13.90
2024-04-30T08:11:09.608Z,14.00
2024-04-30T08:13:39.059Z,14.00
2024-04-30T08:16:06.547Z,14.00
2024-04-30T08:18:33.549Z,14.00
2024-04-30T08:21:00.504Z,14.20
2024-04-30T08:23:27.450Z,14.30
2024-04-30T08:25:54.444Z,14.40
2024-04-30T08:28:21.528Z,14.50
2024-04-30T08:30:50.363Z,14.70
2024-04-30T08:33:18.718Z,14.90
2024-04-30T08:35:45.782Z,15.10
2024-04-30T08:38:13.190Z,15.20
2024-04-30T08:40:40.311Z,15.30
2024-04-30T08:43:07.957Z,15.50
2024-04-30T08:45:35.044Z,15.50
2024-04-30T08:48:03.073Z,15.60
2024-04-30T08:50:30.138Z,15.60
2024-04-30T08:52:58.652Z,15.60
2024-04-30T08:55:25.693Z,15.70
2024-04-30T08:57:52.635Z,15.70
2024-04-30T09:00:19.704Z,15.70
2024-04-30T09:02:53.143Z,15.80
2024-04-30T09:05:24.146Z,15.70
2024-04-30T09:07:51.226Z,15.80
2024-04-30T09:10:19.330Z,15.80
2024-04-30T09:12:46.452Z,15.80
2024-04-30T09:15:18.145Z,15.80
2024-04-30T09:17:45.256Z,15.90
2024-04-30T09:20:12.939Z,15.90
2024-04-30T09:22:50.360Z,15.90
2024-04-30T09:25:35.344Z,16.00
2024-04-30T09:28:12.018Z,16.20
2024-04-30T09:30:40.091Z,16.40
2024-04-30T09:33:09.431Z,16.50
2024-04-30T09:35:36.689Z,16.60
2024-04-30T09:38:08.414Z,16.80
2024-04-30T09:40:35.994Z,16.90
2024-04-30T09:43:03.361Z,17.00
2024-04-30T09:45:31.158Z,17.10
2024-04-30T09:47:58.284Z,17.20
2024-04-30T09:50:25.254Z,17.30
2024-04-30T09:52:53.490Z,17.40
2024-04-30T09:55:20.595Z,17.50
2024-04-30T09:57:49.547Z,17.60
2024-04-30T10:00:20.129Z,17.80
2024-04-30T10:02:51.901Z,17.90
2024-04-30T10:05:22.314Z,18.00
2024-04-30T10:07:49.486Z,18.20
2024-04-30T10:10:30.413Z,18.30
2024-04-30T10:13:14.357Z,18.40
2024-04-30T10:15:41.821Z,18.50
2024-04-30T10:18:11.135Z,18.60
2024-04-30T10:20:38.203Z,18.80
2024-04-30T10:23:06.798Z,19.10
2024-04-30T10:25:34.006Z,19.20
2024-04-30T10:28:08.501Z,19.20
2024-04-30T10:30:36.004Z,19.20
2024-04-30T10:33:03.916Z,19.30
2024-04-30T10:35:43.513Z,19.40
2024-04-30T10:38:10.799Z,19.50
2024-04-30T10:40:37.949Z,19.80
2024-04-30T10:43:05.550Z,20.00
2024-04-30T10:45:32.598Z,20.10
2024-04-30T10:47:59.959Z,20.30
2024-04-30T10:50:27.194Z,20.60
2024-04-30T10:52:54.487Z,20.80
2024-04-30T10:55:21.518Z,20.80
2024-04-30T10:57:49.529Z,20.80
2024-04-30T11:00:16.684Z,21.00
2024-04-30T11:02:48.011Z,21.40
2024-04-30T11:05:17.948Z,21.70
2024-04-30T11:08:00.423Z,21.90
2024-04-30T11:10:34.946Z,22.10
2024-04-30T11:13:04.549Z,22.50
2024-04-30T11:15:31.997Z,22.80
2024-04-30T11:17:59.359Z,22.90
2024-04-30T11:20:26.567Z,23.00
2024-04-30T11:22:53.578Z,23.00
2024-04-30T11:25:20.667Z,22.80
2024-04-30T11:27:47.631Z,22.80
2024-04-30T11:30:14.692Z,22.80
2024-04-30T11:32:42.061Z,22.80
2024-04-30T11:35:09.147Z,23.00
2024-04-30T11:37:36.491Z,23.40
2024-04-30T11:40:03.661Z,23.60
2024-04-30T11:42:34.934Z,23.40
2024-04-30T11:45:14.637Z,23.10
2024-04-30T11:47:41.712Z,23.10
2024-04-30T11:50:10.267Z,23.70
2024-04-30T11:52:40.514Z,24.20
2024-04-30T11:55:08.072Z,24.50
2024-04-30T11:57:35.287Z,24.60
2024-04-30T12:00:02.237Z,24.70
2024-04-30T12:02:31.517Z,24.50
2024-04-30T12:04:58.723Z,24.60
2024-04-30T12:07:25.899Z,25.00
2024-04-30T12:09:52.981Z,25.50
2024-04-30T12:12:20.069Z,26.00
2024-04-30T12:14:47.165Z,26.30
2024-04-30T12:17:14.230Z,26.60
2024-04-30T12:19:41.324Z,26.90
2024-04-30T12:22:08.571Z,27.10
2024-04-30T12:24:35.658Z,27.30
2024-04-30T12:27:02.723Z,27.40
2024-04-30T12:29:29.721Z,27.30
2024-04-30T12:31:56.703Z,27.40
2024-04-30T12:34:23.656Z,27.60
2024-04-30T12:36:51.624Z,27.90
2024-04-30T12:39:18.634Z,28.10
2024-04-30T12:41:45.732Z,27.70
2024-04-30T12:44:14.729Z,27.00
2024-04-30T12:46:47.140Z,26.20
2024-04-30T12:49:14.619Z,25.40
2024-04-30T12:51:41.970Z,24.90
2024-04-30T12:54:09.355Z,25.00
2024-04-30T12:56:36.391Z,24.80
2024-04-30T12:59:04.752Z,24.80
2024-04-30T13:01:33.305Z,24.90
2024-04-30T13:04:01.173Z,24.90
2024-04-30T13:06:28.188Z,24.90
2024-04-30T13:08:55.401Z,25.10
2024-04-30T13:11:22.467Z,25.70
2024-04-30T13:13:51.034Z,26.00
2024-04-30T13:16:18.132Z,25.70
2024-04-30T13:18:45.283Z,25.40
2024-04-30T13:21:15.094Z,25.40
2024-04-30T13:23:42.348Z,25.50
2024-04-30T13:26:09.294Z,25.70
2024-04-30T13:28:36.476Z,26.20
2024-04-30T13:31:03.560Z,26.90
2024-04-30T13:33:31.134Z,27.40
2024-04-30T13:35:58.467Z,27.90
2024-04-30T13:38:25.555Z,28.40
2024-04-30T13:40:52.505Z,28.80
2024-04-30T13:43:19.958Z,29.00
2024-04-30T13:45:47.272Z,29.40
2024-04-30T13:48:14.281Z,29.90
2024-04-30T13:50:41.438Z,30.30
2024-04-30T13:53:09.394Z,30.80
2024-04-30T13:55:36.502Z,31.00
2024-04-30T13:58:04.773Z,31.10
2024-04-30T14:00:31.937Z,31.20
2024-04-30T14:02:59.208Z,31.00
2024-04-30T14:05:26.198Z,31.00
2024-04-30T14:07:53.997Z,31.30
2024-04-30T14:10:21.254Z,31.70
2024-04-30T14:12:49.440Z,31.90
2024-04-30T14:15:18.157Z,31.80
2024-04-30T14:17:45.666Z,31.50
2024-04-30T14:20:12.682Z,31.40
2024-04-30T14:22:41.695Z,31.10
2024-04-30T14:25:09.401Z,31.10
2024-04-30T14:27:36.582Z,31.00
2024-04-30T14:30:04.559Z,31.20
2024-04-30T14:32:33.252Z,31.60
2024-04-30T14:35:01.705Z,32.00
2024-04-30T14:37:28.802Z,32.40
2024-04-30T14:39:56.840Z,32.80
2024-04-30T14:42:23.909Z,33.00
2024-04-30T14:44:54.687Z,33.20
2024-04-30T14:47:23.389Z,33.60
2024-04-30T14:49:51.857Z,34.00
2024-04-30T14:52:18.999Z,34.30
2024-04-30T14:54:47.168Z,34.40
2024-04-30T14:57:15.347Z,34.50
2024-04-30T14:59:42.294Z,34.60
2024-04-30T15:02:09.279Z,34.70
2024-04-30T15:04:36.840Z,35.10
2024-04-30T15:07:03.992Z,35.30
2024-04-30T15:09:34.757Z,35.00
2024-04-30T15:12:02.622Z,34.20
2024-04-30T15:14:29.737Z,33.00
2024-04-30T15:16:57.039Z,32.40
2024-04-30T15:19:24.285Z,32.50
2024-04-30T15:21:52.320Z,32.90
2024-04-30T15:24:19.822Z,33.50
2024-04-30T15:26:48.396Z,33.70
2024-04-30T15:29:15.630Z,34.00
2024-04-30T15:31:42.910Z,34.10
2024-04-30T15:34:10.038Z,34.10
2024-04-30T15:36:42.675Z,33.70
2024-04-30T15:39:10.318Z,33.50
2024-04-30T15:41:37.241Z,33.50
2024-04-30T15:44:04.410Z,33.40
2024-04-30T15:46:31.500Z,33.60
2024-04-30T15:48:58.539Z,34.10
2024-04-30T15:51:25.513Z,34.50
2024-04-30T15:53:52.524Z,35.00
2024-04-30T15:56:19.989Z,35.00
2024-04-30T15:58:47.752Z,34.80
2024-04-30T16:01:15.702Z,34.70
2024-04-30T16:03:42.820Z,34.70
2024-04-30T16:06:10.005Z,34.70
2024-04-30T16:08:37.089Z,34.60
2024-04-30T16:11:09.790Z,34.60
2024-04-30T16:13:38.609Z,34.70
2024-04-30T16:16:12.730Z,34.90
2024-04-30T16:18:45.392Z,34.90
2024-04-30T16:21:12.577Z,34.90
2024-04-30T16:23:39.677Z,34.90
2024-04-30T16:26:07.147Z,34.50
2024-04-30T16:28:37.808Z,34.20
2024-04-30T16:31:04.964Z,34.20
2024-04-30T16:33:32.279Z,34.10
2024-04-30T16:35:59.379Z,33.70
2024-04-30T16:38:26.323Z,33.50
2024-04-30T16:40:53.347Z,33.60
2024-04-30T16:43:20.303Z,33.90
2024-04-30T16:45:47.740Z,34.10
2024-04-30T16:48:14.867Z,33.80
2024-04-30T16:50:42.058Z,33.70
2024-04-30T16:53:10.041Z,33.60
2024-04-30T16:55:36.962Z,33.70
2024-04-30T16:58:05.668Z,33.70
2024-04-30T17:00:32.930Z,33.70
2024-04-30T17:03:00.220Z,33.20
2024-04-30T17:05:28.063Z,32.90
2024-04-30T17:07:55.098Z,32.90
2024-04-30T17:10:22.157Z,32.80
2024-04-30T17:12:50.553Z,32.70
2024-04-30T17:15:20.999Z,32.70
2024-04-30T17:17:52.803Z,32.70
2024-04-30T17:20:20.989Z,32.80
2024-04-30T17:22:50.984Z,33.10
2024-04-30T17:25:17.918Z,32.80
2024-04-30T17:27:44.976Z,32.60
2024-04-30T17:30:12.455Z,32.20
2024-04-30T17:32:41.458Z,31.30
2024-04-30T17:35:08.890Z,29.90
2024-04-30T17:37:35.827Z,28.30
2024-04-30T17:40:02.914Z,26.90
2024-04-30T17:42:31.016Z,26.10
2024-04-30T17:44:58.127Z,25.60
2024-04-30T17:47:25.185Z,25.20
2024-04-30T17:49:52.438Z,24.60
2024-04-30T17:52:20.142Z,24.30
2024-04-30T17:54:47.661Z,24.10
2024-04-30T17:57:14.679Z,23.70
2024-04-30T17:59:41.805Z,23.00
2024-04-30T18:02:08.825Z,22.40
2024-04-30T18:04:36.960Z,21.80
2024-04-30T18:07:06.436Z,21.30
2024-04-30T18:09:33.797Z,21.00
2024-04-30T18:12:00.908Z,20.50
2024-04-30T18:14:29.341Z,20.20
2024-04-30T18:16:58.561Z,19.80
2024-04-30T18:19:26.394Z,19.50
2024-04-30T18:21:53.432Z,19.20
2024-04-30T18:24:20.455Z,19.00
2024-04-30T18:26:47.525Z,18.80
2024-04-30T18:29:16.997Z,18.70
2024-04-30T18:31:52.754Z,18.50
2024-04-30T18:34:19.875Z,18.40
2024-04-30T18:36:46.910Z,18.30
2024-04-30T18:39:15.917Z,18.20
2024-04-30T18:41:43.409Z,18.10
2024-04-30T18:44:11.715Z,18.10
2024-04-30T18:46:40.107Z,17.90
2024-04-30T18:49:07.385Z,17.80
2024-04-30T18:51:41.559Z,17.80
2024-04-30T18:54:09.781Z,17.70
2024-04-30T18:56:40.744Z,17.60
2024-04-30T18:59:09.113Z,17.50
2024-04-30T19:01:36.711Z,17.40
2024-04-30T19:04:05.566Z,17.30
2024-04-30T19:06:32.636Z,17.20
2024-04-30T19:08:59.998Z,17.10
2024-04-30T19:11:27.060Z,17.10
2024-04-30T19:13:54.148Z,17.00
2024-04-30T19:16:24.914Z,16.90
2024-04-30T19:18:51.983Z,16.80
2024-04-30T19:21:19.122Z,16.70
2024-04-30T19:23:46.194Z,16.60
2024-04-30T19:26:14.863Z,16.50
2024-04-30T19:28:42.002Z,16.40
2024-04-30T19:31:20.325Z,16.30
2024-04-30T19:33:47.990Z,16.20
2024-04-30T19:36:19.419Z,16.10
2024-04-30T19:38:46.930Z,16.00
2024-04-30T19:41:14.536Z,15.90
2024-04-30T19:43:41.489Z,15.80
2024-04-30T19:46:21.102Z,15.70
2024-04-30T19:48:51.656Z,15.60
2024-04-30T19:51:22.566Z,15.60
2024-04-30T19:53:50.078Z,15.50
2024-04-30T19:56:20.641Z,15.40
2024-04-30T19:58:55.566Z,15.30
2024-04-30T20:01:28.548Z,15.30
2024-04-30T20:03:59.228Z,15.20
2024-04-30T20:06:26.585Z,15.20
2024-04-30T20:08:53.667Z,15.10
2024-04-30T20:11:21.524Z,15.00
2024-04-30T20:13:48.699Z,15.00
2024-04-30T20:16:15.969Z,15.00
2024-04-30T20:18:46.433Z,15.00
2024-04-30T20:21:14.263Z,14.90
2024-04-30T20:23:41.956Z,14.90
2024-04-30T20:26:09.283Z,14.90
2024-04-30T20:28:36.239Z,14.90
2024-04-30T20:31:04.375Z,14.80
2024-04-30T20:33:31.763Z,14.80
2024-04-30T20:35:58.746Z,14.70
2024-04-30T20:38:25.712Z,14.70
2024-04-30T20:40:53.985Z,14.60
2024-04-30T20:43:26.330Z,14.60
2024-04-30T20:45:53.363Z,14.50
2024-04-30T20:48:20.424Z,14.50
2024-04-30T20:50:47.644Z,14.50
2024-04-30T20:53:14.574Z,14.40
2024-04-30T20:55:44.906Z,14.40
2024-04-30T20:58:12.650Z,14.40
2024-04-30T21:00:39.722Z,14.30
2024-04-30T21:03:06.758Z,14.20
2024-04-30T21:05:33.786Z,14.20
2024-04-30T21:08:00.852Z,14.20
2024-04-30T21:10:27.886Z,14.10
2024-04-30T21:12:59.779Z,14.10
2024-04-30T21:15:26.760Z,14.10
2024-04-30T21:17:53.845Z,14.00
2024-04-30T21:20:22.413Z,13.90
2024-04-30T21:22:49.482Z,14.00
2024-04-30T21:25:16.633Z,14.20
2024-04-30T21:27:43.648Z,14.20
2024-04-30T21:30:13.674Z,14.20
2024-04-30T21:32:40.701Z,14.20
2024-04-30T21:35:13.203Z,14.20
2024-04-30T21:37:40.797Z,14.20
2024-04-30T21:40:08.956Z,14.10
2024-04-30T21:42:36.001Z,14.10
2024-04-30T21:45:03.425Z,14.00
2024-04-30T21:47:31.274Z,14.00
2024-04-30T21:49:58.679Z,13.90
2024-04-30T21:52:28.811Z,13.80
2024-04-30T21:54:55.770Z,13.80
2024-04-30T21:57:22.781Z,13.80
2024-04-30T21:59:49.848Z,13.80
2024-04-30T22:02:16.829Z,13.70
2024-04-30T22:04:46.131Z,13.70
2024-04-30T22:07:21.165Z,13.70
2024-04-30T22:09:48.556Z,13.70
2024-04-30T22:12:15.625Z,13.60
2024-04-30T22:14:42.586Z,13.60
2024-04-30T22:17:10.734Z,13.60
2024-04-30T22:19:37.921Z,13.70
2024-04-30T22:22:05.077Z,13.80
2024-04-30T22:24:32.301Z,13.80
2024-04-30T22:26:59.374Z,13.80
2024-04-30T22:29:26.656Z,13.80
2024-04-30T22:31:54.330Z,13.80
2024-04-30T22:34:21.418Z,13.70
2024-04-30T22:36:48.431Z,13.60
2024-04-30T22:39:15.441Z,13.50
2024-04-30T22:41:42.439Z,13.50
2024-04-30T22:44:09.500Z,13.40
2024-04-30T22:46:36.721Z,13.40
2024-04-30T22:49:03.910Z,13.30
2024-04-30T22:51:32.087Z,13.30
2024-04-30T22:53:59.394Z,13.30
2024-04-30T22:56:26.571Z,13.20
2024-04-30T22:58:53.631Z,13.20
2024-04-30T23:01:20.826Z,13.20
2024-04-30T23:03:47.915Z,13.20
2024-04-30T23:06:15.181Z,13.10
2024-04-30T23:08:42.416Z,13.10
2024-04-30T23:11:09.760Z,13.10
2024-04-30T23:13:36.724Z,13.10
2024-04-30T23:16:05.437Z,13.10
2024-04-30T23:18:32.499Z,13.00
2024-04-30T23:20:59.601Z,13.00
2024-04-30T23:23:26.590Z,13.00
2024-04-30T23:25:53.814Z,13.00
2024-04-30T23:28:20.846Z,13.00
2024-04-30T23:30:50.378Z,13.00
2024-04-30T23:33:17.516Z,13.00
2024-04-30T23:35:48.014Z,12.90
2024-04-30T23:38:16.339Z,12.90
2024-04-30T23:40:43.305Z,12.80
2024-04-30T23:43:10.336Z,12.80
2024-04-30T23:45:40.651Z,12.70
2024-04-30T23:48:08.104Z,12.70
2024-04-30T23:50:35.672Z,12.70
2024-04-30T23:53:02.880Z,12.60
2024-04-30T23:55:29.961Z,12.50
2024-04-30T23:57:57.056Z,12.50
